sensor_id;sensor_type;location;lat;lon;timestamp;pressure;altitude;pressure_sealevel;temperature;humidity
39223;BME280;24936;46.328;11.026;2023-08-01T00:01:48;93810.13;;;17.53;100.00
39223;BME280;24936;46.328;11.026;2023-08-01T00:04:13;93812.56;;;17.48;100.00
39223;BME280;24936;46.328;11.026;2023-08-01T00:06:39;93806.41;;;17.47;100.00
39223;BME280;24936;46.328;11.026;2023-08-01T00:09:04;93798.00;;;17.43;100.00
39223;BME280;24936;46.328;11.026;2023-08-01T00:11:29;93795.75;;;17.40;100.00
39223;BME280;24936;46.328;11.026;2023-08-01T00:13:55;93791.03;;;17.36;100.00
39223;BME280;24936;46.328;11.026;2023-08-01T00:16:20;93789.97;;;17.30;100.00
39223;BME280;24936;46.328;11.026;2023-08-01T00:18:46;93787.50;;;17.28;100.00
39223;BME280;24936;46.328;11.026;2023-08-01T00:21:11;93792.38;;;17.18;100.00
39223;BME280;24936;46.328;11.026;2023-08-01T00:23:37;93789.06;;;17.16;100.00
39223;BME280;24936;46.328;11.026;2023-08-01T00:26:02;93783.38;;;17.19;100.00
39223;BME280;24936;46.328;11.026;2023-08-01T00:28:29;93787.91;;;17.25;100.00
39223;BME280;24936;46.328;11.026;2023-08-01T00:31:07;93771.13;;;17.25;100.00
39223;BME280;24936;46.328;11.026;2023-08-01T00:33:36;93770.03;;;17.12;100.00
39223;BME280;24936;46.328;11.026;2023-08-01T00:36:02;93774.31;;;17.07;100.00
39223;BME280;24936;46.328;11.026;2023-08-01T00:38:27;93772.66;;;17.06;100.00
39223;BME280;24936;46.328;11.026;2023-08-01T00:40:53;93771.72;;;16.85;100.00
39223;BME280;24936;46.328;11.026;2023-08-01T00:43:18;93764.34;;;16.87;100.00
39223;BME280;24936;46.328;11.026;2023-08-01T00:45:44;93756.97;;;16.82;100.00
39223;BME280;24936;46.328;11.026;2023-08-01T00:48:10;93742.25;;;16.80;100.00
39223;BME280;24936;46.328;11.026;2023-08-01T00:50:35;93744.28;;;16.78;100.00
39223;BME280;24936;46.328;11.026;2023-08-01T00:53:00;93746.56;;;16.81;100.00
39223;BME280;24936;46.328;11.026;2023-08-01T00:55:27;93751.47;;;16.84;100.00
39223;BME280;24936;46.328;11.026;2023-08-01T00:57:53;93747.88;;;17.40;100.00
39223;BME280;24936;46.328;11.026;2023-08-01T01:00:18;93744.28;;;17.68;100.00
39223;BME280;24936;46.328;11.026;2023-08-01T01:02:44;93741.28;;;17.98;100.00
39223;BME280;24936;46.328;11.026;2023-08-01T01:05:09;93734.53;;;18.02;100.00
39223;BME280;24936;46.328;11.026;2023-08-01T01:07:34;93733.31;;;18.05;100.00
39223;BME280;24936;46.328;11.026;2023-08-01T01:10:00;93724.09;;;18.08;100.00
39223;BME280;24936;46.328;11.026;2023-08-01T01:12:25;93731.06;;;18.09;100.00
39223;BME280;24936;46.328;11.026;2023-08-01T01:14:51;93726.97;;;18.06;100.00
39223;BME280;24936;46.328;11.026;2023-08-01T01:17:16;93726.97;;;18.06;100.00
39223;BME280;24936;46.328;11.026;2023-08-01T01:19:42;93718.31;;;17.91;100.00
39223;BME280;24936;46.328;11.026;2023-08-01T01:22:08;93720.34;;;17.82;100.00
39223;BME280;24936;46.328;11.026;2023-08-01T01:24:35;93719.31;;;17.76;100.00
39223;BME280;24936;46.328;11.026;2023-08-01T01:27:03;93717.28;;;17.71;100.00
39223;BME280;24936;46.328;11.026;2023-08-01T01:29:31;93704.16;;;17.70;100.00
39223;BME280;24936;46.328;11.026;2023-08-01T01:31:59;93714.00;;;17.69;100.00
39223;BME280;24936;46.328;11.026;2023-08-01T01:34:26;93714.00;;;17.69;100.00
39223;BME280;24936;46.328;11.026;2023-08-01T01:36:52;93708.25;;;17.59;100.00
39223;BME280;24936;46.328;11.026;2023-08-01T01:39:17;93709.25;;;17.58;100.00
39223;BME280;24936;46.328;11.026;2023-08-01T01:41:43;93704.56;;;17.60;100.00
39223;BME280;24936;46.328;11.026;2023-08-01T01:44:08;93697.81;;;17.64;100.00
39223;BME280;24936;46.328;11.026;2023-08-01T01:46:34;93686.75;;;17.54;100.00
39223;BME280;24936;46.328;11.026;2023-08-01T01:48:59;93688.38;;;17.48;100.00
39223;BME280;24936;46.328;11.026;2023-08-01T01:51:26;93687.78;;;17.60;100.00
39223;BME280;24936;46.328;11.026;2023-08-01T01:53:52;93683.88;;;17.55;100.00
39223;BME280;24936;46.328;11.026;2023-08-01T01:56:17;93669.53;;;17.50;100.00
39223;BME280;24936;46.328;11.026;2023-08-01T01:58:43;93666.88;;;17.43;100.00
39223;BME280;24936;46.328;11.026;2023-08-01T02:01:08;93675.47;;;17.52;100.00
39223;BME280;24936;46.328;11.026;2023-08-01T02:03:33;93679.00;;;17.59;100.00
39223;BME280;24936;46.328;11.026;2023-08-01T02:05:59;93674.69;;;17.65;100.00
39223;BME280;24936;46.328;11.026;2023-08-01T02:08:24;93673.28;;;17.82;100.00
39223;BME280;24936;46.328;11.026;2023-08-01T02:10:50;93671.22;;;17.78;100.00
39223;BME280;24936;46.328;11.026;2023-08-01T02:13:15;93662.81;;;17.74;100.00
39223;BME280;24936;46.328;11.026;2023-08-01T02:15:41;93661.41;;;17.71;100.00
39223;BME280;24936;46.328;11.026;2023-08-01T02:18:06;93655.69;;;17.68;100.00
39223;BME280;24936;46.328;11.026;2023-08-01T02:20:31;93648.91;;;17.65;100.00
39223;BME280;24936;46.328;11.026;2023-08-01T02:22:57;93646.44;;;17.64;100.00
39223;BME280;24936;46.328;11.026;2023-08-01T02:25:22;93639.09;;;17.59;100.00
39223;BME280;24936;46.328;11.026;2023-08-01T02:27:48;93634.78;;;17.58;100.00
39223;BME280;24936;46.328;11.026;2023-08-01T02:30:13;93631.09;;;17.52;100.00
39223;BME280;24936;46.328;11.026;2023-08-01T02:32:39;93622.50;;;17.50;100.00
39223;BME280;24936;46.328;11.026;2023-08-01T02:35:04;93623.94;;;17.53;100.00
39223;BME280;24936;46.328;11.026;2023-08-01T02:37:29;93621.47;;;17.58;100.00
39223;BME280;24936;46.328;11.026;2023-08-01T02:39:55;93626.59;;;17.53;100.00
39223;BME280;24936;46.328;11.026;2023-08-01T02:42:20;93628.22;;;17.47;100.00
39223;BME280;24936;46.328;11.026;2023-08-01T02:44:45;93616.56;;;17.48;100.00
39223;BME280;24936;46.328;11.026;2023-08-01T02:47:11;93612.03;;;17.42;100.00
39223;BME280;24936;46.328;11.026;2023-08-01T02:49:36;93614.53;;;17.50;100.00
39223;BME280;24936;46.328;11.026;2023-08-01T02:52:02;93629.66;;;17.56;100.00
39223;BME280;24936;46.328;11.026;2023-08-01T02:54:27;93622.69;;;17.49;100.00
39223;BME280;24936;46.328;11.026;2023-08-01T02:56:53;93628.84;;;17.56;100.00
39223;BME280;24936;46.328;11.026;2023-08-01T02:59:18;93630.69;;;17.62;100.00
39223;BME280;24936;46.328;11.026;2023-08-01T03:01:43;93636.81;;;17.56;100.00
39223;BME280;24936;46.328;11.026;2023-08-01T03:04:09;93637.84;;;17.48;100.00
39223;BME280;24936;46.328;11.026;2023-08-01T03:06:37;93643.56;;;17.52;100.00
39223;BME280;24936;46.328;11.026;2023-08-01T03:09:02;93635.41;;;17.67;100.00
39223;BME280;24936;46.328;11.026;2023-08-01T03:11:28;93628.44;;;17.59;100.00
39223;BME280;24936;46.328;11.026;2023-08-01T03:13:53;93637.84;;;17.48;100.00
39223;BME280;24936;46.328;11.026;2023-08-01T03:16:19;93634.97;;;17.50;100.00
39223;BME280;24936;46.328;11.026;2023-08-01T03:18:44;93631.50;;;17.49;100.00
39223;BME280;24936;46.328;11.026;2023-08-01T03:21:10;93634.97;;;17.50;100.00
39223;BME280;24936;46.328;11.026;2023-08-01T03:23:36;93637.44;;;17.58;100.00
39223;BME280;24936;46.328;11.026;2023-08-01T03:26:01;93637.03;;;17.41;100.00
39223;BME280;24936;46.328;11.026;2023-08-01T03:28:27;93632.44;;;17.15;100.00
39223;BME280;24936;46.328;11.026;2023-08-01T03:30:52;93632.88;;;17.25;100.00
39223;BME280;24936;46.328;11.026;2023-08-01T03:33:19;93619.16;;;17.15;100.00
39223;BME280;24936;46.328;11.026;2023-08-01T03:35:45;93610.94;;;17.09;100.00
39223;BME280;24936;46.328;11.026;2023-08-01T03:38:10;93619.34;;;17.06;100.00
39223;BME280;24936;46.328;11.026;2023-08-01T03:40:36;93610.91;;;16.96;100.00
39223;BME280;24936;46.328;11.026;2023-08-01T03:43:01;93605.38;;;16.91;100.00
39223;BME280;24936;46.328;11.026;2023-08-01T03:45:26;93602.59;;;17.12;100.00
39223;BME280;24936;46.328;11.026;2023-08-01T03:47:52;93603.97;;;17.02;100.00
39223;BME280;24936;46.328;11.026;2023-08-01T03:50:17;93592.78;;;17.06;100.00
39223;BME280;24936;46.328;11.026;2023-08-01T03:52:43;93593.19;;;17.17;100.00
39223;BME280;24936;46.328;11.026;2023-08-01T03:55:08;93597.69;;;17.16;100.00
39223;BME280;24936;46.328;11.026;2023-08-01T03:57:34;93607.09;;;17.12;100.00
39223;BME280;24936;46.328;11.026;2023-08-01T04:00:00;93599.53;;;17.16;100.00
39223;BME280;24936;46.328;11.026;2023-08-01T04:02:25;93589.06;;;17.01;100.00
39223;BME280;24936;46.328;11.026;2023-08-01T04:04:50;93584.50;;;16.88;100.00
39223;BME280;24936;46.328;11.026;2023-08-01T04:07:16;93579.34;;;16.79;100.00
39223;BME280;24936;46.328;11.026;2023-08-01T04:09:41;93593.22;;;16.68;100.00
39223;BME280;24936;46.328;11.026;2023-08-01T04:12:06;93584.28;;;16.82;100.00
39223;BME280;24936;46.328;11.026;2023-08-01T04:14:33;93586.19;;;16.95;100.00
39223;BME280;24936;46.328;11.026;2023-08-01T04:16:58;93585.75;;;16.92;100.00
39223;BME280;24936;46.328;11.026;2023-08-01T04:19:24;93589.88;;;17.01;100.00
39223;BME280;24936;46.328;11.026;2023-08-01T04:21:50;93585.75;;;16.92;100.00
39223;BME280;24936;46.328;11.026;2023-08-01T04:24:15;93580.50;;;16.99;100.00
39223;BME280;24936;46.328;11.026;2023-08-01T04:26:41;93579.03;;;16.96;100.00
39223;BME280;24936;46.328;11.026;2023-08-01T04:29:06;93586.53;;;16.86;100.00
39223;BME280;24936;46.328;11.026;2023-08-01T04:31:32;93580.81;;;16.82;100.00
39223;BME280;24936;46.328;11.026;2023-08-01T04:33:57;93577.25;;;17.23;100.00
39223;BME280;24936;46.328;11.026;2023-08-01T04:36:22;93575.78;;;17.07;100.00
39223;BME280;24936;46.328;11.026;2023-08-01T04:38:48;93580.28;;;17.00;100.00
39223;BME280;24936;46.328;11.026;2023-08-01T04:41:13;93583.97;;;17.12;100.00
39223;BME280;24936;46.328;11.026;2023-08-01T04:43:38;93566.38;;;17.11;100.00
39223;BME280;24936;46.328;11.026;2023-08-01T04:46:04;93569.66;;;17.14;100.00
39223;BME280;24936;46.328;11.026;2023-08-01T04:48:29;93570.28;;;17.09;100.00
39223;BME280;24936;46.328;11.026;2023-08-01T04:50:54;93564.13;;;17.15;100.00
39223;BME280;24936;46.328;11.026;2023-08-01T04:53:20;93559.47;;;17.24;100.00
39223;BME280;24936;46.328;11.026;2023-08-01T04:55:45;93551.88;;;17.27;100.00
39223;BME280;24936;46.328;11.026;2023-08-01T04:58:11;93555.59;;;17.20;100.00
39223;BME280;24936;46.328;11.026;2023-08-01T05:00:37;93552.69;;;17.15;100.00
39223;BME280;24936;46.328;11.026;2023-08-01T05:03:02;93555.38;;;17.15;100.00
39223;BME280;24936;46.328;11.026;2023-08-01T05:05:28;93560.47;;;17.36;100.00
39223;BME280;24936;46.328;11.026;2023-08-01T05:07:53;93555.59;;;17.40;100.00
39223;BME280;24936;46.328;11.026;2023-08-01T05:10:19;93553.13;;;17.38;100.00
39223;BME280;24936;46.328;11.026;2023-08-01T05:12:44;93551.09;;;17.47;100.00
39223;BME280;24936;46.328;11.026;2023-08-01T05:15:09;93548.22;;;17.49;100.00
39223;BME280;24936;46.328;11.026;2023-08-01T05:17:35;93547.00;;;17.45;100.00
39223;BME280;24936;46.328;11.026;2023-08-01T05:20:00;93550.47;;;17.52;100.00
39223;BME280;24936;46.328;11.026;2023-08-01T05:22:26;93539.22;;;17.63;100.00
39223;BME280;24936;46.328;11.026;2023-08-01T05:24:52;93545.56;;;17.62;100.00
39223;BME280;24936;46.328;11.026;2023-08-01T05:27:17;93550.06;;;17.82;100.00
39223;BME280;24936;46.328;11.026;2023-08-01T05:29:43;93551.91;;;17.88;100.00
39223;BME280;24936;46.328;11.026;2023-08-01T05:32:08;93537.38;;;17.97;100.00
39223;BME280;24936;46.328;11.026;2023-08-01T05:34:33;93537.13;;;17.85;100.00
39223;BME280;24936;46.328;11.026;2023-08-01T05:36:59;93543.09;;;17.87;100.00
39223;BME280;24936;46.328;11.026;2023-08-01T05:39:24;93537.16;;;17.79;100.00
39223;BME280;24936;46.328;11.026;2023-08-01T05:41:49;93541.06;;;17.76;100.00
39223;BME280;24936;46.328;11.026;2023-08-01T05:44:16;93539.63;;;17.73;100.00
39223;BME280;24936;46.328;11.026;2023-08-01T05:46:41;93536.97;;;17.73;100.00
39223;BME280;24936;46.328;11.026;2023-08-01T05:49:07;93537.75;;;17.87;100.00
39223;BME280;24936;46.328;11.026;2023-08-01T05:51:32;93541.25;;;17.81;100.00
39223;BME280;24936;46.328;11.026;2023-08-01T05:53:57;93542.91;;;17.69;100.00
39223;BME280;24936;46.328;11.026;2023-08-01T05:56:23;93530.59;;;17.95;100.00
39223;BME280;24936;46.328;11.026;2023-08-01T05:58:48;93522.63;;;18.01;100.00
39223;BME280;24936;46.328;11.026;2023-08-01T06:01:15;93527.50;;;17.91;100.00
39223;BME280;24936;46.328;11.026;2023-08-01T06:03:42;93534.06;;;17.88;100.00
39223;BME280;24936;46.328;11.026;2023-08-01T06:06:07;93533.88;;;17.83;100.00
39223;BME280;24936;46.328;11.026;2023-08-01T06:08:33;93522.41;;;17.83;100.00
39223;BME280;24936;46.328;11.026;2023-08-01T06:10:58;93514.63;;;17.95;100.00
39223;BME280;24936;46.328;11.026;2023-08-01T06:13:24;93515.25;;;17.83;100.00
39223;BME280;24936;46.328;11.026;2023-08-01T06:15:49;93507.06;;;17.85;100.00
39223;BME280;24936;46.328;11.026;2023-08-01T06:18:15;93499.88;;;17.92;100.00
39223;BME280;24936;46.328;11.026;2023-08-01T06:20:40;93492.72;;;17.93;100.00
39223;BME280;24936;46.328;11.026;2023-08-01T06:23:06;93495.81;;;17.83;100.00
39223;BME280;24936;46.328;11.026;2023-08-01T06:25:31;93493.56;;;17.80;100.00
39223;BME280;24936;46.328;11.026;2023-08-01T06:27:56;93486.81;;;17.84;100.00
39223;BME280;24936;46.328;11.026;2023-08-01T06:30:22;93488.44;;;17.78;100.00
39223;BME280;24936;46.328;11.026;2023-08-01T06:32:47;93492.94;;;17.98;100.00
39223;BME280;24936;46.328;11.026;2023-08-01T06:35:12;93497.44;;;18.04;100.00
39223;BME280;24936;46.328;11.026;2023-08-01T06:37:38;93495.72;;;18.23;100.00
39223;BME280;24936;46.328;11.026;2023-08-01T06:40:04;93494.09;;;18.22;100.00
39223;BME280;24936;46.328;11.026;2023-08-01T06:42:30;93485.03;;;18.30;100.00
39223;BME280;24936;46.328;11.026;2023-08-01T06:44:55;93487.88;;;18.42;100.00
39223;BME280;24936;46.328;11.026;2023-08-01T06:47:20;93496.88;;;18.41;100.00
39223;BME280;24936;46.328;11.026;2023-08-01T06:49:46;93504.63;;;18.49;100.00
39223;BME280;24936;46.328;11.026;2023-08-01T06:52:11;93498.94;;;18.39;100.00
39223;BME280;24936;46.328;11.026;2023-08-01T06:54:37;93487.88;;;18.42;100.00
39223;BME280;24936;46.328;11.026;2023-08-01T06:57:03;93477.53;;;18.59;100.00
39223;BME280;24936;46.328;11.026;2023-08-01T06:59:28;93468.97;;;18.89;100.00
39223;BME280;24936;46.328;11.026;2023-08-01T07:01:55;93475.22;;;19.08;100.00
39223;BME280;24936;46.328;11.026;2023-08-01T07:04:20;93473.97;;;19.10;100.00
39223;BME280;24936;46.328;11.026;2023-08-01T07:06:46;93461.13;;;19.01;100.00
39223;BME280;24936;46.328;11.026;2023-08-01T07:09:11;93453.09;;;19.07;100.00
39223;BME280;24936;46.328;11.026;2023-08-01T07:11:36;93453.66;;;19.35;100.00
39223;BME280;24936;46.328;11.026;2023-08-01T07:14:02;93458.47;;;19.51;100.00
39223;BME280;24936;46.328;11.026;2023-08-01T07:16:27;93454.59;;;19.47;100.00
39223;BME280;24936;46.328;11.026;2023-08-01T07:18:52;93457.44;;;19.52;100.00
39223;BME280;24936;46.328;11.026;2023-08-01T07:21:18;93460.91;;;19.53;100.00
39223;BME280;24936;46.328;11.026;2023-08-01T07:23:43;93463.47;;;19.41;100.00
39223;BME280;24936;46.328;11.026;2023-08-01T07:26:09;93462.09;;;19.32;100.00
39223;BME280;24936;46.328;11.026;2023-08-01T07:28:35;93454.22;;;19.18;100.00
39223;BME280;24936;46.328;11.026;2023-08-01T07:31:01;93449.53;;;19.14;100.00
39223;BME280;24936;46.328;11.026;2023-08-01T07:33:27;93448.16;;;19.55;100.00
39223;BME280;24936;46.328;11.026;2023-08-01T07:35:52;93447.69;;;20.02;100.00
39223;BME280;24936;46.328;11.026;2023-08-01T07:38:18;93444.88;;;20.34;100.00
39223;BME280;24936;46.328;11.026;2023-08-01T07:40:43;93438.06;;;20.20;100.00
39223;BME280;24936;46.328;11.026;2023-08-01T07:43:09;93447.53;;;19.78;100.00
39223;BME280;24936;46.328;11.026;2023-08-01T07:45:34;93449.84;;;19.49;100.00
39223;BME280;24936;46.328;11.026;2023-08-01T07:48:00;93444.50;;;19.49;100.00
39223;BME280;24936;46.328;11.026;2023-08-01T07:50:26;93438.44;;;19.42;100.00
39223;BME280;24936;46.328;11.026;2023-08-01T07:52:51;93440.22;;;19.48;100.00
39223;BME280;24936;46.328;11.026;2023-08-01T07:55:17;93443.91;;;19.47;100.00
39223;BME280;24936;46.328;11.026;2023-08-01T07:57:44;93444.38;;;19.88;100.00
39223;BME280;24936;46.328;11.026;2023-08-01T08:00:10;93437.28;;;20.31;100.00
39223;BME280;24936;46.328;11.026;2023-08-01T08:02:36;93428.25;;;20.32;100.00
39223;BME280;24936;46.328;11.026;2023-08-01T08:05:01;93432.00;;;20.73;100.00
39223;BME280;24936;46.328;11.026;2023-08-01T08:07:26;93423.97;;;21.04;100.00
39223;BME280;24936;46.328;11.026;2023-08-01T08:09:52;93417.13;;;21.08;100.00
39223;BME280;24936;46.328;11.026;2023-08-01T08:12:20;93414.25;;;21.33;100.00
39223;BME280;24936;46.328;11.026;2023-08-01T08:14:46;93413.44;;;21.45;100.00
39223;BME280;24936;46.328;11.026;2023-08-01T08:17:11;93409.44;;;21.12;99.67
39223;BME280;24936;46.328;11.026;2023-08-01T08:19:37;93404.34;;;21.10;99.37
39223;BME280;24936;46.328;11.026;2023-08-01T08:22:02;93400.84;;;20.37;100.00
39223;BME280;24936;46.328;11.026;2023-08-01T08:24:28;93403.50;;;20.25;100.00
39223;BME280;24936;46.328;11.026;2023-08-01T08:26:53;93399.31;;;20.29;100.00
39223;BME280;24936;46.328;11.026;2023-08-01T08:29:19;93395.16;;;20.33;100.00
39223;BME280;24936;46.328;11.026;2023-08-01T08:31:44;93382.66;;;20.45;100.00
39223;BME280;24936;46.328;11.026;2023-08-01T08:34:09;93385.88;;;20.66;100.00
39223;BME280;24936;46.328;11.026;2023-08-01T08:36:35;93381.38;;;20.78;100.00
39223;BME280;24936;46.328;11.026;2023-08-01T08:39:00;93388.03;;;20.88;100.00
39223;BME280;24936;46.328;11.026;2023-08-01T08:41:26;93377.91;;;20.47;100.00
39223;BME280;24936;46.328;11.026;2023-08-01T08:43:56;93370.34;;;20.44;100.00
39223;BME280;24936;46.328;11.026;2023-08-01T08:46:27;93378.38;;;20.75;100.00
39223;BME280;24936;46.328;11.026;2023-08-01T08:48:55;93371.03;;;20.82;100.00
39223;BME280;24936;46.328;11.026;2023-08-01T08:51:21;93372.63;;;20.71;100.00
39223;BME280;24936;46.328;11.026;2023-08-01T08:53:47;93375.72;;;20.56;100.00
39223;BME280;24936;46.328;11.026;2023-08-01T08:56:15;93376.09;;;20.29;100.00
39223;BME280;24936;46.328;11.026;2023-08-01T08:58:41;93363.75;;;20.59;100.00
39223;BME280;24936;46.328;11.026;2023-08-01T09:01:07;93362.97;;;20.70;100.00
39223;BME280;24936;46.328;11.026;2023-08-01T09:03:33;93361.22;;;20.64;100.00
39223;BME280;24936;46.328;11.026;2023-08-01T09:06:12;93350.28;;;20.96;100.00
39223;BME280;24936;46.328;11.026;2023-08-01T09:08:39;93343.03;;;21.56;97.81
39223;BME280;24936;46.328;11.026;2023-08-01T09:11:05;93339.47;;;22.32;93.38
39223;BME280;24936;46.328;11.026;2023-08-01T09:13:31;93319.72;;;22.21;94.14
39223;BME280;24936;46.328;11.026;2023-08-01T09:15:57;93322.66;;;22.49;91.50
39223;BME280;24936;46.328;11.026;2023-08-01T09:18:22;93336.78;;;22.61;90.85
39223;BME280;24936;46.328;11.026;2023-08-01T09:20:49;93343.44;;;22.29;92.13
39223;BME280;24936;46.328;11.026;2023-08-01T09:23:16;93338.19;;;22.06;93.71
39223;BME280;24936;46.328;11.026;2023-08-01T09:25:44;93332.56;;;22.19;90.74
39223;BME280;24936;46.328;11.026;2023-08-01T09:30:49;93330.16;;;22.06;92.08
39223;BME280;24936;46.328;11.026;2023-08-01T09:33:15;93323.03;;;21.71;95.18
39223;BME280;24936;46.328;11.026;2023-08-01T09:35:41;93323.03;;;21.47;97.12
39223;BME280;24936;46.328;11.026;2023-08-01T09:38:06;93320.03;;;21.31;100.00
39223;BME280;24936;46.328;11.026;2023-08-01T09:40:39;93324.44;;;20.90;100.00
39223;BME280;24936;46.328;11.026;2023-08-01T09:43:04;93309.41;;;20.65;100.00
39223;BME280;24936;46.328;11.026;2023-08-01T09:45:30;93314.56;;;20.78;100.00
39223;BME280;24936;46.328;11.026;2023-08-01T09:47:55;93307.53;;;20.11;100.00
39223;BME280;24936;46.328;11.026;2023-08-01T09:50:22;93305.19;;;19.66;100.00
39223;BME280;24936;46.328;11.026;2023-08-01T09:52:48;93314.25;;;19.46;100.00
39223;BME280;24936;46.328;11.026;2023-08-01T09:57:48;93299.56;;;19.18;100.00
39223;BME280;24936;46.328;11.026;2023-08-01T10:00:15;93300.69;;;19.48;100.00
39223;BME280;24936;46.328;11.026;2023-08-01T10:02:43;93291.09;;;19.59;100.00
39223;BME280;24936;46.328;11.026;2023-08-01T10:05:09;93280.50;;;20.20;100.00
39223;BME280;24936;46.328;11.026;2023-08-01T10:07:38;93278.34;;;20.40;100.00
39223;BME280;24936;46.328;11.026;2023-08-01T10:10:05;93276.63;;;20.46;100.00
39223;BME280;24936;46.328;11.026;2023-08-01T10:12:31;93291.22;;;20.31;100.00
39223;BME280;24936;46.328;11.026;2023-08-01T10:14:58;93286.78;;;20.25;100.00
39223;BME280;24936;46.328;11.026;2023-08-01T10:17:23;93277.38;;;21.01;100.00
39223;BME280;24936;46.328;11.026;2023-08-01T10:19:50;93276.78;;;20.99;100.00
39223;BME280;24936;46.328;11.026;2023-08-01T10:22:19;93273.88;;;21.12;100.00
39223;BME280;24936;46.328;11.026;2023-08-01T10:24:46;93271.91;;;21.07;100.00
39223;BME280;24936;46.328;11.026;2023-08-01T10:27:13;93266.97;;;21.52;99.49
39223;BME280;24936;46.328;11.026;2023-08-01T10:29:39;93257.63;;;21.66;99.64
39223;BME280;24936;46.328;11.026;2023-08-01T10:32:06;93251.59;;;22.17;96.80
39223;BME280;24936;46.328;11.026;2023-08-01T10:34:32;93250.94;;;22.10;91.34
39223;BME280;24936;46.328;11.026;2023-08-01T10:36:59;93233.44;;;22.19;93.63
39223;BME280;24936;46.328;11.026;2023-08-01T10:39:26;93217.28;;;23.61;91.42
39223;BME280;24936;46.328;11.026;2023-08-01T10:44:23;93204.31;;;24.02;84.16
39223;BME280;24936;46.328;11.026;2023-08-01T10:49:19;93210.06;;;24.16;85.70
39223;BME280;24936;46.328;11.026;2023-08-01T10:51:45;93198.63;;;25.01;80.13
39223;BME280;24936;46.328;11.026;2023-08-01T10:54:24;93196.44;;;26.46;76.86
39223;BME280;24936;46.328;11.026;2023-08-01T10:56:52;93188.28;;;26.05;74.54
39223;BME280;24936;46.328;11.026;2023-08-01T10:59:18;93189.97;;;26.37;69.98
39223;BME280;24936;46.328;11.026;2023-08-01T11:01:58;93189.44;;;26.35;72.37
39223;BME280;24936;46.328;11.026;2023-08-01T11:04:23;93184.97;;;25.72;74.20
39223;BME280;24936;46.328;11.026;2023-08-01T11:06:53;93181.59;;;26.33;76.26
39223;BME280;24936;46.328;11.026;2023-08-01T11:09:26;93177.53;;;26.10;73.50
39223;BME280;24936;46.328;11.026;2023-08-01T11:11:59;93170.44;;;25.73;77.03
39223;BME280;24936;46.328;11.026;2023-08-01T11:14:27;93172.13;;;25.26;76.53
39223;BME280;24936;46.328;11.026;2023-08-01T11:16:56;93166.78;;;27.69;67.33
39223;BME280;24936;46.328;11.026;2023-08-01T11:19:27;93161.91;;;29.14;60.85
39223;BME280;24936;46.328;11.026;2023-08-01T11:21:53;93167.00;;;29.70;56.29
39223;BME280;24936;46.328;11.026;2023-08-01T11:24:21;93166.50;;;26.84;69.50
39223;BME280;24936;46.328;11.026;2023-08-01T11:26:48;93147.56;;;27.10;67.80
39223;BME280;24936;46.328;11.026;2023-08-01T11:29:15;93155.84;;;27.29;64.66
39223;BME280;24936;46.328;11.026;2023-08-01T11:31:41;93150.94;;;27.41;63.11
39223;BME280;24936;46.328;11.026;2023-08-01T11:34:07;93146.25;;;29.36;65.10
39223;BME280;24936;46.328;11.026;2023-08-01T11:36:35;93129.47;;;28.85;62.11
39223;BME280;24936;46.328;11.026;2023-08-01T11:39:02;93133.25;;;30.86;57.70
39223;BME280;24936;46.328;11.026;2023-08-01T11:41:28;93143.19;;;30.24;51.40
39223;BME280;24936;46.328;11.026;2023-08-01T11:43:54;93135.13;;;29.13;61.03
39223;BME280;24936;46.328;11.026;2023-08-01T11:46:30;93125.78;;;28.01;66.07
39223;BME280;24936;46.328;11.026;2023-08-01T11:48:56;93117.19;;;29.66;52.89
39223;BME280;24936;46.328;11.026;2023-08-01T11:51:21;93105.50;;;30.89;48.22
39223;BME280;24936;46.328;11.026;2023-08-01T11:54:06;93100.09;;;30.89;50.72
39223;BME280;24936;46.328;11.026;2023-08-01T11:56:33;93093.50;;;31.23;52.12
39223;BME280;24936;46.328;11.026;2023-08-01T11:58:58;93106.69;;;28.57;56.19
39223;BME280;24936;46.328;11.026;2023-08-01T12:01:25;93093.81;;;29.70;55.05
39223;BME280;24936;46.328;11.026;2023-08-01T12:03:52;93092.78;;;27.65;60.09
39223;BME280;24936;46.328;11.026;2023-08-01T12:06:20;93091.47;;;27.57;61.41
39223;BME280;24936;46.328;11.026;2023-08-01T12:08:47;93081.47;;;28.37;58.85
39223;BME280;24936;46.328;11.026;2023-08-01T12:11:24;93093.41;;;26.65;64.60
39223;BME280;24936;46.328;11.026;2023-08-01T12:14:10;93088.38;;;27.24;60.92
39223;BME280;24936;46.328;11.026;2023-08-01T12:16:41;93080.59;;;28.47;58.95
39223;BME280;24936;46.328;11.026;2023-08-01T12:19:09;93070.63;;;28.66;55.77
39223;BME280;24936;46.328;11.026;2023-08-01T12:21:35;93065.09;;;28.82;60.29
39223;BME280;24936;46.328;11.026;2023-08-01T12:24:01;93061.69;;;28.42;60.37
39223;BME280;24936;46.328;11.026;2023-08-01T12:26:27;93053.44;;;26.88;61.17
39223;BME280;24936;46.328;11.026;2023-08-01T12:28:53;93048.06;;;28.22;58.95
39223;BME280;24936;46.328;11.026;2023-08-01T12:31:19;93043.94;;;27.96;56.79
39223;BME280;24936;46.328;11.026;2023-08-01T12:33:45;93045.09;;;29.84;55.76
39223;BME280;24936;46.328;11.026;2023-08-01T12:36:12;93031.13;;;29.96;56.11
39223;BME280;24936;46.328;11.026;2023-08-01T12:38:37;93041.81;;;31.14;48.64
39223;BME280;24936;46.328;11.026;2023-08-01T12:41:03;93044.91;;;31.35;54.78
39223;BME280;24936;46.328;11.026;2023-08-01T12:43:28;93043.66;;;29.72;57.42
39223;BME280;24936;46.328;11.026;2023-08-01T12:45:54;93038.00;;;29.88;50.45
39223;BME280;24936;46.328;11.026;2023-08-01T12:48:21;93031.66;;;29.98;51.56